Terminal Aerodrome Forecast
Issued by NWS

Current Version | Previous Version | Text Only | Print | Product List | Glossary On
Versions: 1 2 3 4 5 6 7 8 9 10 11 12 13 14 15 16 17
641
FTUS41 KILN 280903 AAA
TAFLUK
TAF AMD
KLUK 280903Z 2809/0106 VRB03KT P6SM VCSH OVC080
     FM281200 16006KT 6SM -SHRA OVC035
     FM281400 18008KT 5SM -SHRA SCT008 OVC015
     FM282000 19009KT 5SM -SHRA VCTS SCT008 OVC015CB
     FM282300 20012KT P6SM OVC015
     FM010500 20012G20KT 5SM SHRA VCTS OVC008CB=

USA.gov is the U.S. government's official web portal to all federal, state and local government web resources and services.